Time;durP1;ratioP1;P1;durP2;ratioP2;P2;SDS_P1;SDS_P2;PMS_P1;PMS_P2;Temp;Humidity;BMP_temperature;BMP_pressure;BME280_temperature;BME280_humidity;BME280_pressure;Samples;Min_cycle;Max_cycle;Signal;HPM_P1;HPM_P2
2021/12/13 00:00:42;;;;;;;5.18;4.65;;;;;;;;;;4811449;29;32301;-68
2021/12/13 00:03:19;;;;;;;4.88;4.30;;;;;;;;;;4811547;29;32426;-68
2021/12/13 00:05:53;;;;;;;6.55;5.38;;;;;;;;;;4811865;29;32327;-68
2021/12/13 00:08:28;;;;;;;5.20;4.70;;;;;;;;;;4811519;29;32750;-68
2021/12/13 00:11:01;;;;;;;7.45;4.75;;;;;;;;;;4812020;29;32295;-68
2021/12/13 00:13:43;;;;;;;4.78;4.38;;;;;;;;;;4811641;29;32373;-68
2021/12/13 00:16:14;;;;;;;12.40;4.85;;;;;;;;;;4811191;29;32444;-68
2021/12/13 00:18:47;;;;;;;11.00;4.93;;;;;;;;;;4811349;29;32365;-69
2021/12/13 00:21:23;;;;;;;9.38;4.38;;;;;;;;;;4811599;29;34254;-69
2021/12/13 00:23:54;;;;;;;5.70;5.07;;;;;;;;;;4811627;29;32670;-68
2021/12/13 00:26:28;;;;;;;4.72;4.32;;;;;;;;;;4811785;29;32447;-69
2021/12/13 00:28:56;;;;;;;8.68;5.00;;;;;;;;;;4811257;29;32448;-69
2021/12/13 00:31:37;;;;;;;5.93;5.03;;;;;;;;;;4810860;29;32361;-69
2021/12/13 00:34:32;;;;;;;8.43;5.53;;;;;;;;;;4811300;29;32382;-68
2021/12/13 00:37:08;;;;;;;5.43;4.70;;;;;;;;;;4811480;29;32508;-68
2021/12/13 00:39:45;;;;;;;8.32;4.63;;;;;;;;;;4811659;29;32497;-68
2021/12/13 00:42:15;;;;;;;4.82;4.40;;;;;;;;;;4807593;29;32349;-67
2021/12/13 00:44:49;;;;;;;5.45;4.88;;;;;;;;;;4811584;29;34368;-67
2021/12/13 00:47:23;;;;;;;5.07;4.70;;;;;;;;;;4811515;29;32730;-68
2021/12/13 00:49:58;;;;;;;10.25;4.70;;;;;;;;;;4811704;29;32591;-67
2021/12/13 00:52:31;;;;;;;6.07;4.35;;;;;;;;;;4810964;29;32424;-68
2021/12/13 00:55:01;;;;;;;5.93;4.82;;;;;;;;;;4811648;29;32586;-68
2021/12/13 00:57:41;;;;;;;;;;;;;;;;;;4812041;29;32224;-68
2021/12/13 01:00:16;;;;;;;5.70;5.03;;;;;;;;;;4811310;29;32355;-70
2021/12/13 01:02:49;;;;;;;6.78;5.53;;;;;;;;;;4811534;29;32512;-68
2021/12/13 01:05:20;;;;;;;7.93;5.07;;;;;;;;;;4811636;29;32362;-69
2021/12/13 01:08:16;;;;;;;5.03;4.43;;;;;;;;;;4810992;29;34373;-68
2021/12/13 01:11:12;;;;;;;10.93;5.00;;;;;;;;;;4811015;29;32854;-69
2021/12/13 01:14:18;;;;;;;5.10;4.70;;;;;;;;;;4811902;29;32968;-69
2021/12/13 01:16:58;;;;;;;5.53;5.05;;;;;;;;;;4801554;29;32697;-69
2021/12/13 01:19:37;;;;;;;5.22;4.82;;;;;;;;;;4810912;29;32284;-69
2021/12/13 01:22:39;;;;;;;5.32;4.93;;;;;;;;;;4810457;29;32600;-68
2021/12/13 01:25:39;;;;;;;5.53;4.40;;;;;;;;;;4811566;29;32366;-69
2021/12/13 01:28:20;;;;;;;5.00;4.50;;;;;;;;;;4811073;29;32400;-68
2021/12/13 01:30:57;;;;;;;5.07;4.67;;;;;;;;;;4809868;29;32420;-68
2021/12/13 01:33:28;;;;;;;4.93;4.43;;;;;;;;;;4810666;29;35496;-69
2021/12/13 01:36:00;;;;;;;5.80;5.30;;;;;;;;;;4811120;29;32485;-69
2021/12/13 01:38:36;;;;;;;6.45;4.88;;;;;;;;;;4810621;29;32351;-69
2021/12/13 01:41:11;;;;;;;7.80;5.13;;;;;;;;;;4811050;29;32130;-69
2021/12/13 01:43:45;;;;;;;5.65;5.15;;;;;;;;;;4806566;29;32488;-69
2021/12/13 01:46:13;;;;;;;5.88;5.38;;;;;;;;;;4806134;29;32598;-69
2021/12/13 01:48:45;;;;;;;4.80;4.40;;;;;;;;;;4809690;29;32419;-69
2021/12/13 01:51:20;;;;;;;6.45;5.20;;;;;;;;;;4810953;29;32467;-69
2021/12/13 01:53:53;;;;;;;6.78;4.95;;;;;;;;;;4798878;29;32425;-69
2021/12/13 01:56:41;;;;;;;5.85;5.32;;;;;;;;;;4810465;29;35084;-69
2021/12/13 01:59:42;;;;;;;5.32;4.82;;;;;;;;;;4810888;29;32425;-69
2021/12/13 02:02:24;;;;;;;7.60;5.07;;;;;;;;;;4824341;29;32392;-69
2021/12/13 02:05:02;;;;;;;5.50;5.00;;;;;;;;;;4829028;29;32319;-69
2021/12/13 02:07:41;;;;;;;11.68;5.03;;;;;;;;;;4828659;29;34039;-70
2021/12/13 02:10:14;;;;;;;4.93;4.53;;;;;;;;;;4829159;29;32438;-69
2021/12/13 02:12:46;;;;;;;7.25;4.70;;;;;;;;;;4792300;29;32511;-70
2021/12/13 02:18:04;;;;;;;5.78;5.28;;;;;;;;;;4792120;29;32493;-69
2021/12/13 02:20:36;;;;;;;8.65;4.43;;;;;;;;;;4792075;29;34896;-69
2021/12/13 02:23:07;;;;;;;5.13;4.72;;;;;;;;;;4803603;29;32566;-68
2021/12/13 02:25:40;;;;;;;5.05;4.65;;;;;;;;;;4809817;29;32719;-69
2021/12/13 02:28:12;;;;;;;6.05;3.90;;;;;;;;;;4810466;29;32448;-67
2021/12/13 02:30:45;;;;;;;5.07;4.57;;;;;;;;;;4810392;29;34607;-68
2021/12/13 02:33:19;;;;;;;7.55;5.18;;;;;;;;;;4809724;29;32662;-67
2021/12/13 02:35:51;;;;;;;5.00;4.60;;;;;;;;;;4809529;29;32392;-66
2021/12/13 02:38:25;;;;;;;4.93;4.57;;;;;;;;;;4810371;29;32308;-68
2021/12/13 02:40:55;;;;;;;4.68;4.28;;;;;;;;;;4806480;29;32403;-66
2021/12/13 02:43:29;;;;;;;4.85;4.45;;;;;;;;;;4798791;29;35480;-67
2021/12/13 02:45:59;;;;;;;4.47;4.18;;;;;;;;;;4801953;29;32482;-69
2021/12/13 02:48:32;;;;;;;5.55;4.30;;;;;;;;;;4805500;29;32308;-68
2021/12/13 02:51:08;;;;;;;5.15;4.65;;;;;;;;;;4801191;29;32657;-66
2021/12/13 02:53:42;;;;;;;5.15;3.85;;;;;;;;;;4803048;29;33925;-69
2021/12/13 02:56:11;;;;;;;5.07;4.05;;;;;;;;;;4799819;29;32445;-69
2021/12/13 02:58:41;;;;;;;5.05;4.28;;;;;;;;;;4795430;29;32500;-68
2021/12/13 03:01:14;;;;;;;5.25;4.75;;;;;;;;;;4801356;29;32599;-69
2021/12/13 03:03:47;;;;;;;4.53;4.00;;;;;;;;;;4794861;29;32470;-71
2021/12/13 03:06:19;;;;;;;3.72;3.53;;;;;;;;;;4800826;29;35279;-71
2021/12/13 03:08:53;;;;;;;4.25;3.85;;;;;;;;;;4804418;29;32491;-69
2021/12/13 03:11:28;;;;;;;6.43;3.90;;;;;;;;;;4794325;29;32555;-70
2021/12/13 03:14:00;;;;;;;4.40;3.97;;;;;;;;;;4794430;29;32250;-73
2021/12/13 03:16:32;;;;;;;6.07;4.18;;;;;;;;;;4793083;29;35546;-73
2021/12/13 03:19:06;;;;;;;4.50;4.05;;;;;;;;;;4799300;29;32388;-76
2021/12/13 03:22:09;;;;;;;4.85;4.18;;;;;;;;;;4812285;29;32404;-73
2021/12/13 03:25:05;;;;;;;5.05;4.57;;;;;;;;;;4812556;29;32290;-73
2021/12/13 03:27:48;;;;;;;5.10;4.35;;;;;;;;;;4810740;29;32827;-74
2021/12/13 03:30:22;;;;;;;7.03;4.18;;;;;;;;;;4811477;29;33934;-72
2021/12/13 03:32:56;;;;;;;5.40;3.95;;;;;;;;;;4812026;29;32554;-72
2021/12/13 03:35:28;;;;;;;5.55;4.43;;;;;;;;;;4812487;29;32461;-72
2021/12/13 03:38:05;;;;;;;4.68;4.28;;;;;;;;;;4811925;29;32554;-71
2021/12/13 03:40:36;;;;;;;8.15;4.38;;;;;;;;;;4811904;29;35572;-71
2021/12/13 03:43:15;;;;;;;5.03;4.53;;;;;;;;;;4811133;29;32366;-71
2021/12/13 03:45:48;;;;;;;4.18;3.80;;;;;;;;;;4810049;29;32649;-72
2021/12/13 03:48:23;;;;;;;5.60;4.55;;;;;;;;;;4812352;29;32568;-72
2021/12/13 03:50:56;;;;;;;5.32;4.63;;;;;;;;;;4811637;29;32426;-71
2021/12/13 03:53:32;;;;;;;4.93;3.72;;;;;;;;;;4808947;29;34791;-71
2021/12/13 03:56:07;;;;;;;5.93;5.00;;;;;;;;;;4809169;29;32515;-71
2021/12/13 03:58:39;;;;;;;5.55;4.45;;;;;;;;;;4811279;29;32810;-71
2021/12/13 04:01:14;;;;;;;4.90;4.47;;;;;;;;;;4812312;29;32474;-72
2021/12/13 04:03:45;;;;;;;5.38;4.03;;;;;;;;;;4812082;29;34548;-72
2021/12/13 04:06:16;;;;;;;10.55;4.43;;;;;;;;;;4811242;29;32618;-71
2021/12/13 04:08:46;;;;;;;7.13;4.40;;;;;;;;;;4811667;29;32366;-73
2021/12/13 04:11:16;;;;;;;5.00;4.60;;;;;;;;;;4811963;29;32570;-70
2021/12/13 04:13:49;;;;;;;11.70;4.15;;;;;;;;;;4811386;29;32452;-71
2021/12/13 04:16:33;;;;;;;5.50;4.22;;;;;;;;;;4810240;29;35779;-70
2021/12/13 04:19:07;;;;;;;9.85;4.13;;;;;;;;;;4803406;29;32594;-70
2021/12/13 04:21:43;;;;;;;9.35;4.05;;;;;;;;;;4801138;29;32496;-69
2021/12/13 04:24:15;;;;;;;5.35;4.30;;;;;;;;;;4802454;29;32535;-69
2021/12/13 04:26:50;;;;;;;7.85;4.03;;;;;;;;;;4799948;29;33917;-71
2021/12/13 04:29:22;;;;;;;4.68;4.28;;;;;;;;;;4800356;29;32466;-70
2021/12/13 04:31:52;;;;;;;;;;;;;;;;;;4799606;29;32404;-71
2021/12/13 04:34:23;;;;;;;5.00;4.30;;;;;;;;;;4801996;29;32362;-71
2021/12/13 04:36:56;;;;;;;6.60;4.65;;;;;;;;;;4800951;29;32846;-69
2021/12/13 04:39:33;;;;;;;11.32;4.63;;;;;;;;;;4802509;29;34644;-70
2021/12/13 04:42:06;;;;;;;7.07;4.57;;;;;;;;;;4794801;29;32513;-70
2021/12/13 04:44:38;;;;;;;9.30;4.47;;;;;;;;;;4805063;29;32385;-70
2021/12/13 04:47:11;;;;;;;12.23;4.45;;;;;;;;;;4809228;29;32408;-72
2021/12/13 04:49:46;;;;;;;4.32;3.97;;;;;;;;;;4807894;29;35540;-72
2021/12/13 04:52:18;;;;;;;11.57;4.13;;;;;;;;;;4805494;29;32562;-72
2021/12/13 04:54:51;;;;;;;8.00;4.35;;;;;;;;;;4808182;29;32574;-71
2021/12/13 04:57:22;;;;;;;15.70;4.82;;;;;;;;;;4809434;29;32489;-72
2021/12/13 04:59:56;;;;;;;6.05;4.45;;;;;;;;;;4809633;29;32513;-72
2021/12/13 05:02:25;;;;;;;5.10;4.60;;;;;;;;;;4811921;29;35519;-70
2021/12/13 05:04:56;;;;;;;10.60;4.57;;;;;;;;;;4791481;29;32439;-69
2021/12/13 05:07:26;;;;;;;4.70;4.15;;;;;;;;;;4799080;29;32408;-69
2021/12/13 05:09:55;;;;;;;6.63;3.80;;;;;;;;;;4810904;29;32341;-69
2021/12/13 05:12:28;;;;;;;5.13;4.00;;;;;;;;;;4803754;29;35926;-69
2021/12/13 05:15:01;;;;;;;7.63;4.20;;;;;;;;;;4801033;29;32218;-70
2021/12/13 05:17:35;;;;;;;4.80;4.20;;;;;;;;;;4799617;29;32444;-70
2021/12/13 05:20:16;;;;;;;4.70;4.13;;;;;;;;;;4797930;29;32518;-70
2021/12/13 05:22:52;;;;;;;9.23;4.30;;;;;;;;;;4799744;29;32378;-68
2021/12/13 05:25:30;;;;;;;4.00;3.65;;;;;;;;;;4798906;29;34100;-69
2021/12/13 05:28:05;;;;;;;6.13;3.65;;;;;;;;;;4794965;29;32885;-69
2021/12/13 05:30:37;;;;;;;5.60;4.30;;;;;;;;;;4804827;29;32424;-69
2021/12/13 05:33:08;;;;;;;13.55;4.05;;;;;;;;;;4811189;29;32364;-69
2021/12/13 05:35:41;;;;;;;13.30;4.68;;;;;;;;;;4811094;29;35736;-70
2021/12/13 05:38:22;;;;;;;10.38;4.32;;;;;;;;;;4811121;29;32407;-67
2021/12/13 05:40:50;;;;;;;;;;;;;;;;;;4811143;29;32676;-67
2021/12/13 05:43:24;;;;;;;6.30;4.20;;;;;;;;;;4811418;29;32424;-69
2021/12/13 05:45:58;;;;;;;7.78;4.57;;;;;;;;;;4811699;29;32527;-69
2021/12/13 05:48:48;;;;;;;15.20;4.40;;;;;;;;;;4811025;29;34682;-69
2021/12/13 05:51:28;;;;;;;9.90;4.65;;;;;;;;;;4811061;29;32461;-70
2021/12/13 05:54:01;;;;;;;8.02;4.78;;;;;;;;;;4809295;29;32334;-70
2021/12/13 05:56:36;;;;;;;5.80;5.13;;;;;;;;;;4811294;29;32225;-69
2021/12/13 05:59:20;;;;;;;14.00;5.15;;;;;;;;;;4811107;29;34623;-70
2021/12/13 06:02:12;;;;;;;18.48;4.70;;;;;;;;;;4810300;29;32437;-69
2021/12/13 06:04:55;;;;;;;19.45;5.30;;;;;;;;;;4811243;29;32725;-69
2021/12/13 06:07:28;;;;;;;10.48;5.20;;;;;;;;;;4811371;29;32326;-69
2021/12/13 06:10:00;;;;;;;11.15;4.47;;;;;;;;;;4811439;29;32371;-68
2021/12/13 06:12:39;;;;;;;15.20;5.50;;;;;;;;;;4811159;29;35509;-69
2021/12/13 06:15:39;;;;;;;21.15;5.20;;;;;;;;;;4810265;29;32298;-68
2021/12/13 06:18:20;;;;;;;9.65;4.93;;;;;;;;;;4810808;29;32395;-69
2021/12/13 06:20:56;;;;;;;14.70;4.82;;;;;;;;;;4810864;29;32242;-67
2021/12/13 06:23:27;;;;;;;16.25;5.18;;;;;;;;;;4810906;29;34007;-68
2021/12/13 06:26:00;;;;;;;11.43;4.28;;;;;;;;;;4810748;29;32609;-68
2021/12/13 06:28:31;;;;;;;12.45;4.50;;;;;;;;;;4810513;29;32358;-68
2021/12/13 06:31:06;;;;;;;12.02;4.68;;;;;;;;;;4810392;29;32161;-68
2021/12/13 06:33:48;;;;;;;10.52;4.50;;;;;;;;;;4810944;29;32367;-69
2021/12/13 06:36:26;;;;;;;19.38;5.03;;;;;;;;;;4810140;29;35573;-69
2021/12/13 06:38:55;;;;;;;17.38;4.85;;;;;;;;;;4810097;29;32401;-69
2021/12/13 06:41:43;;;;;;;16.05;4.70;;;;;;;;;;4810103;29;32428;-69
2021/12/13 06:44:20;;;;;;;12.20;4.55;;;;;;;;;;4810028;29;32413;-70
2021/12/13 06:46:58;;;;;;;19.98;4.78;;;;;;;;;;4809225;29;35370;-68
2021/12/13 06:49:30;;;;;;;7.47;4.80;;;;;;;;;;4810172;29;32319;-69
2021/12/13 06:52:03;;;;;;;10.23;4.25;;;;;;;;;;4810097;29;32413;-69
2021/12/13 06:54:36;;;;;;;8.93;4.68;;;;;;;;;;4810223;29;32468;-68
2021/12/13 06:57:10;;;;;;;13.68;5.10;;;;;;;;;;4810541;29;32381;-68
2021/12/13 06:59:49;;;;;;;8.60;4.25;;;;;;;;;;4810449;29;35317;-68
2021/12/13 07:02:21;;;;;;;12.90;4.22;;;;;;;;;;4810046;29;32531;-68
2021/12/13 07:05:04;;;;;;;10.32;4.47;;;;;;;;;;4809887;29;32363;-68
2021/12/13 07:07:38;;;;;;;11.10;4.50;;;;;;;;;;4810295;29;32664;-68
2021/12/13 07:10:15;;;;;;;4.57;4.15;;;;;;;;;;4809674;29;34739;-68
2021/12/13 07:12:50;;;;;;;5.47;3.45;;;;;;;;;;4810092;29;32527;-68
2021/12/13 07:15:29;;;;;;;18.40;4.25;;;;;;;;;;4809443;29;32418;-68
2021/12/13 07:18:21;;;;;;;4.65;3.90;;;;;;;;;;4810190;29;32200;-69
2021/12/13 07:20:51;;;;;;;;;;;;;;;;;;4810243;29;32323;-67
2021/12/13 07:23:19;;;;;;;8.70;4.03;;;;;;;;;;4809478;29;35493;-68
2021/12/13 07:25:55;;;;;;;14.80;3.80;;;;;;;;;;4809916;29;32460;-67
2021/12/13 07:28:33;;;;;;;11.20;3.90;;;;;;;;;;4810071;29;32358;-67
2021/12/13 07:31:05;;;;;;;12.80;3.80;;;;;;;;;;4812801;29;32405;-69
2021/12/13 07:33:41;;;;;;;;;;;;;;;;;;4812906;29;35690;-68
2021/12/13 07:36:19;;;;;;;8.52;3.70;;;;;;;;;;4812790;29;32375;-68
2021/12/13 07:38:50;;;;;;;9.00;3.40;;;;;;;;;;4812034;29;32419;-68
2021/12/13 07:41:21;;;;;;;8.60;3.70;;;;;;;;;;4812487;29;32440;-68
2021/12/13 07:43:49;;;;;;;9.13;3.57;;;;;;;;;;4812566;29;32216;-68
2021/12/13 07:46:29;;;;;;;5.57;3.63;;;;;;;;;;4812044;29;34638;-68
2021/12/13 07:49:03;;;;;;;7.47;3.33;;;;;;;;;;4812228;29;32366;-68
2021/12/13 07:51:34;;;;;;;13.27;3.50;;;;;;;;;;4812682;29;32429;-68
2021/12/13 07:54:07;;;;;;;3.78;3.30;;;;;;;;;;4812502;29;32417;-68
2021/12/13 07:56:50;;;;;;;4.45;3.10;;;;;;;;;;4812164;29;34017;-69
2021/12/13 07:59:25;;;;;;;7.20;3.13;;;;;;;;;;4812263;29;32297;-68
2021/12/13 08:01:59;;;;;;;3.78;3.28;;;;;;;;;;4812020;29;32516;-68
2021/12/13 08:04:34;;;;;;;8.48;3.17;;;;;;;;;;4812375;29;32421;-69
2021/12/13 08:07:10;;;;;;;4.60;3.05;;;;;;;;;;4812645;29;32558;-69
2021/12/13 08:09:45;;;;;;;3.67;3.03;;;;;;;;;;4811886;29;35123;-68
2021/12/13 08:12:20;;;;;;;6.97;3.55;;;;;;;;;;4812258;29;32629;-70
2021/12/13 08:14:53;;;;;;;14.32;4.45;;;;;;;;;;4811798;29;32384;-68
2021/12/13 08:17:26;;;;;;;3.53;3.22;;;;;;;;;;4812468;29;32913;-67
2021/12/13 08:20:00;;;;;;;10.77;3.65;;;;;;;;;;4811941;29;35530;-69
2021/12/13 08:22:30;;;;;;;6.15;3.55;;;;;;;;;;4812057;29;32786;-70
2021/12/13 08:25:02;;;;;;;4.82;3.42;;;;;;;;;;4812067;29;32357;-69
2021/12/13 08:27:35;;;;;;;4.40;3.80;;;;;;;;;;4812642;29;32460;-69
2021/12/13 08:30:14;;;;;;;9.52;3.10;;;;;;;;;;4812749;29;32321;-69
2021/12/13 08:32:58;;;;;;;4.43;3.70;;;;;;;;;;4811694;29;34815;-69
2021/12/13 08:35:30;;;;;;;6.93;3.40;;;;;;;;;;4812237;29;32595;-69
2021/12/13 08:38:00;;;;;;;3.70;3.33;;;;;;;;;;4811422;29;32393;-68
2021/12/13 08:40:32;;;;;;;11.13;3.50;;;;;;;;;;4811354;29;32434;-69
2021/12/13 08:43:01;;;;;;;3.40;3.10;;;;;;;;;;4812147;29;35094;-68
2021/12/13 08:45:35;;;;;;;9.75;3.55;;;;;;;;;;4811660;29;32215;-68
2021/12/13 08:48:09;;;;;;;12.93;3.28;;;;;;;;;;4811681;29;32394;-69
2021/12/13 08:50:41;;;;;;;7.22;3.40;;;;;;;;;;4811925;29;32429;-69
2021/12/13 08:53:18;;;;;;;3.30;3.00;;;;;;;;;;4811973;29;32433;-68
2021/12/13 08:56:04;;;;;;;6.15;3.17;;;;;;;;;;4811093;29;35462;-69
2021/12/13 08:58:32;;;;;;;7.78;3.00;;;;;;;;;;4811370;29;32314;-67
2021/12/13 09:01:03;;;;;;;13.00;3.25;;;;;;;;;;4811439;29;32474;-68
2021/12/13 09:03:40;;;;;;;7.00;2.85;;;;;;;;;;4811994;29;32445;-68
2021/12/13 09:06:24;;;;;;;3.40;3.08;;;;;;;;;;4812156;29;34113;-67
2021/12/13 09:08:57;;;;;;;4.93;3.28;;;;;;;;;;4811557;29;32382;-67
2021/12/13 09:11:33;;;;;;;11.75;2.90;;;;;;;;;;4811698;29;32126;-68
2021/12/13 09:14:15;;;;;;;3.40;2.80;;;;;;;;;;4811416;29;32334;-68
2021/12/13 09:16:55;;;;;;;;;;;;;;;;;;4812109;29;32440;-69
2021/12/13 09:19:30;;;;;;;8.13;3.38;;;;;;;;;;4811277;29;34515;-68
2021/12/13 09:22:05;;;;;;;3.00;2.70;;;;;;;;;;4811344;29;32411;-68
2021/12/13 09:24:42;;;;;;;4.30;2.42;;;;;;;;;;4811582;29;32455;-67
2021/12/13 09:27:23;;;;;;;4.68;2.88;;;;;;;;;;4811850;29;32297;-69
2021/12/13 09:29:58;;;;;;;3.42;2.70;;;;;;;;;;4811357;29;35520;-68
2021/12/13 09:32:34;;;;;;;7.13;2.67;;;;;;;;;;4811354;29;32166;-68
2021/12/13 09:35:40;;;;;;;3.80;2.78;;;;;;;;;;4811566;29;32432;-68
2021/12/13 09:38:34;;;;;;;3.50;2.20;;;;;;;;;;4811901;29;32392;-70
2021/12/13 09:41:18;;;;;;;5.82;2.85;;;;;;;;;;4811475;29;32300;-68
2021/12/13 09:43:55;;;;;;;3.72;2.75;;;;;;;;;;4810940;29;34899;-68
2021/12/13 09:46:33;;;;;;;3.10;2.03;;;;;;;;;;4810799;29;32325;-69
2021/12/13 09:49:08;;;;;;;5.53;2.55;;;;;;;;;;4811304;29;32470;-71
2021/12/13 09:51:44;;;;;;;12.90;3.05;;;;;;;;;;4810436;29;32280;-68
2021/12/13 09:54:17;;;;;;;3.28;2.50;;;;;;;;;;4811277;29;34031;-68
2021/12/13 09:56:49;;;;;;;2.47;2.25;;;;;;;;;;4811038;29;32480;-68
2021/12/13 09:59:24;;;;;;;5.32;2.10;;;;;;;;;;4810770;29;32103;-69
2021/12/13 10:01:54;;;;;;;4.45;2.58;;;;;;;;;;4809163;29;32594;-68
2021/12/13 10:04:30;;;;;;;7.50;2.40;;;;;;;;;;4810181;29;32575;-68
2021/12/13 10:07:01;;;;;;;2.38;2.17;;;;;;;;;;4810790;29;35530;-68
2021/12/13 10:09:37;;;;;;;6.07;2.40;;;;;;;;;;4809861;29;32416;-69
2021/12/13 10:12:13;;;;;;;4.00;2.53;;;;;;;;;;4809620;29;32351;-67
2021/12/13 10:14:46;;;;;;;2.55;2.25;;;;;;;;;;4810995;29;32337;-68
2021/12/13 10:17:17;;;;;;;5.28;2.92;;;;;;;;;;4810863;29;34946;-68
2021/12/13 10:19:49;;;;;;;2.78;2.22;;;;;;;;;;4810954;29;32535;-68
2021/12/13 10:22:24;;;;;;;4.00;2.85;;;;;;;;;;4810593;29;32400;-69
2021/12/13 10:24:57;;;;;;;3.53;2.35;;;;;;;;;;4810641;29;32463;-69
2021/12/13 10:27:25;;;;;;;4.55;2.42;;;;;;;;;;4810666;29;32451;-69
2021/12/13 10:29:56;;;;;;;4.82;2.35;;;;;;;;;;4810369;29;34320;-68
2021/12/13 10:32:29;;;;;;;2.27;2.07;;;;;;;;;;4810557;29;32240;-68
2021/12/13 10:35:02;;;;;;;4.47;2.92;;;;;;;;;;4810205;29;32510;-68
2021/12/13 10:37:40;;;;;;;5.55;2.65;;;;;;;;;;4810339;29;32337;-70
2021/12/13 10:40:15;;;;;;;4.00;2.47;;;;;;;;;;4810435;29;35137;-69
2021/12/13 10:42:50;;;;;;;2.85;2.20;;;;;;;;;;4810426;29;32448;-69
2021/12/13 10:45:25;;;;;;;5.95;2.72;;;;;;;;;;4810369;29;32379;-69
2021/12/13 10:48:01;;;;;;;2.47;2.30;;;;;;;;;;4810312;29;32394;-68
2021/12/13 10:50:34;;;;;;;4.30;2.33;;;;;;;;;;4810753;29;32497;-68
2021/12/13 10:53:04;;;;;;;7.10;2.42;;;;;;;;;;4810292;29;32319;-69
2021/12/13 10:55:44;;;;;;;4.25;2.65;;;;;;;;;;4810640;29;32403;-68
2021/12/13 10:58:15;;;;;;;3.20;2.90;;;;;;;;;;4809803;29;32545;-68
2021/12/13 11:00:47;;;;;;;5.57;2.30;;;;;;;;;;4810334;29;32359;-68
2021/12/13 11:03:19;;;;;;;3.53;2.72;;;;;;;;;;4810876;29;34421;-69
2021/12/13 11:05:47;;;;;;;;;;;;;;;;;;4813450;29;32213;-69
2021/12/13 11:08:20;;;;;;;11.02;2.42;;;;;;;;;;4812791;29;32340;-68
2021/12/13 11:10:53;;;;;;;3.90;2.80;;;;;;;;;;4812888;29;32364;-68
2021/12/13 11:13:22;;;;;;;4.03;1.98;;;;;;;;;;4812800;29;32303;-68
2021/12/13 11:15:54;;;;;;;6.25;2.55;;;;;;;;;;4812252;29;32470;-68
2021/12/13 11:18:27;;;;;;;5.68;2.70;;;;;;;;;;4812701;29;32404;-69
2021/12/13 11:20:59;;;;;;;2.90;2.60;;;;;;;;;;4813083;29;32372;-67
2021/12/13 11:23:27;;;;;;;2.53;2.30;;;;;;;;;;4812940;29;32542;-68
2021/12/13 11:26:01;;;;;;;5.38;2.80;;;;;;;;;;4811355;29;34259;-70
2021/12/13 11:28:31;;;;;;;5.80;3.05;;;;;;;;;;4812792;29;32394;-70
2021/12/13 11:31:01;;;;;;;4.70;2.47;;;;;;;;;;4812480;29;32299;-68
2021/12/13 11:34:10;;;;;;;3.10;2.78;;;;;;;;;;4812383;29;32457;-69
2021/12/13 11:37:40;;;;;;;9.80;3.35;;;;;;;;;;4812681;29;32476;-68
2021/12/13 11:40:34;;;;;;;5.35;3.00;;;;;;;;;;4812319;29;32567;-67
2021/12/13 11:43:29;;;;;;;6.00;2.88;;;;;;;;;;4812686;29;32526;-68
2021/12/13 11:46:23;;;;;;;3.53;2.72;;;;;;;;;;4804683;29;32303;-68
2021/12/13 11:49:26;;;;;;;4.75;2.97;;;;;;;;;;4812798;29;32440;-68
2021/12/13 11:52:14;;;;;;;2.88;2.67;;;;;;;;;;4812993;29;35525;-70
2021/12/13 11:55:23;;;;;;;5.00;3.05;;;;;;;;;;4812254;29;32453;-67
2021/12/13 11:58:17;;;;;;;6.20;3.13;;;;;;;;;;4811225;29;32545;-67
2021/12/13 12:01:30;;;;;;;4.40;3.13;;;;;;;;;;4812601;29;32365;-68
2021/12/13 12:05:26;;;;;;;4.65;2.90;;;;;;;;;;4812000;29;32351;-68
2021/12/13 12:08:57;;;;;;;6.45;3.92;;;;;;;;;;4812274;29;32472;-67
2021/12/13 12:12:04;;;;;;;10.43;4.07;;;;;;;;;;4812538;29;32287;-69
2021/12/13 12:14:33;;;;;;;4.90;3.17;;;;;;;;;;4811305;29;32402;-69
2021/12/13 12:17:05;;;;;;;3.75;3.45;;;;;;;;;;4811826;29;32261;-69
2021/12/13 12:19:36;;;;;;;8.60;3.47;;;;;;;;;;4812150;29;34941;-68
2021/12/13 12:22:10;;;;;;;5.40;3.90;;;;;;;;;;4812393;29;32454;-69
2021/12/13 12:24:41;;;;;;;3.65;3.35;;;;;;;;;;4812506;29;32367;-69
2021/12/13 12:27:13;;;;;;;4.80;3.45;;;;;;;;;;4812106;29;32492;-69
2021/12/13 12:29:44;;;;;;;7.85;3.75;;;;;;;;;;4812352;29;32380;-68
2021/12/13 12:32:20;;;;;;;7.22;4.10;;;;;;;;;;4812037;29;32446;-67
2021/12/13 12:34:57;;;;;;;8.23;3.25;;;;;;;;;;4811484;29;32356;-69
2021/12/13 12:38:09;;;;;;;7.43;3.30;;;;;;;;;;4811882;29;32437;-69
2021/12/13 12:40:40;;;;;;;6.60;3.45;;;;;;;;;;4810597;29;32472;-66
2021/12/13 12:43:11;;;;;;;8.00;3.63;;;;;;;;;;4812009;29;34134;-68
2021/12/13 12:45:45;;;;;;;5.40;3.60;;;;;;;;;;4811535;29;32494;-67
2021/12/13 12:48:27;;;;;;;4.00;3.35;;;;;;;;;;4811521;29;32403;-67
2021/12/13 12:51:11;;;;;;;3.92;3.10;;;;;;;;;;4812007;29;32141;-68
2021/12/13 12:53:46;;;;;;;3.67;3.38;;;;;;;;;;4812108;29;32540;-70
2021/12/13 12:56:22;;;;;;;10.52;3.25;;;;;;;;;;4811666;29;32431;-69
2021/12/13 12:59:02;;;;;;;3.85;3.15;;;;;;;;;;4811718;29;32455;-68
2021/12/13 13:01:36;;;;;;;4.53;4.03;;;;;;;;;;4811486;29;32337;-68
2021/12/13 13:04:17;;;;;;;11.07;3.33;;;;;;;;;;4811608;29;32400;-68
2021/12/13 13:07:06;;;;;;;11.48;3.97;;;;;;;;;;4811481;29;35313;-68
2021/12/13 13:09:45;;;;;;;8.40;3.50;;;;;;;;;;4811777;29;32316;-69
2021/12/13 13:12:17;;;;;;;8.38;3.60;;;;;;;;;;4811281;29;32455;-69
2021/12/13 13:14:51;;;;;;;6.90;3.47;;;;;;;;;;4811274;29;32492;-68
2021/12/13 13:17:23;;;;;;;9.40;4.07;;;;;;;;;;4811603;29;33895;-68
2021/12/13 13:19:58;;;;;;;9.27;3.33;;;;;;;;;;4811601;29;32462;-68
2021/12/13 13:22:32;;;;;;;6.38;4.00;;;;;;;;;;4811566;29;32396;-68
2021/12/13 13:25:07;;;;;;;6.60;3.75;;;;;;;;;;4811310;29;32475;-69
2021/12/13 13:27:37;;;;;;;5.25;3.58;;;;;;;;;;4810114;29;32444;-70
2021/12/13 13:30:13;;;;;;;12.02;4.20;;;;;;;;;;4811353;29;34262;-68
2021/12/13 13:32:41;;;;;;;3.78;3.25;;;;;;;;;;4811818;29;32592;-67
2021/12/13 13:35:12;;;;;;;7.28;3.83;;;;;;;;;;4811710;29;32224;-68
2021/12/13 13:37:43;;;;;;;4.45;3.50;;;;;;;;;;4812056;29;32555;-70
2021/12/13 13:40:15;;;;;;;11.45;3.78;;;;;;;;;;4811124;29;35241;-69
2021/12/13 13:42:50;;;;;;;6.95;4.03;;;;;;;;;;4810925;29;32458;-68
2021/12/13 13:45:22;;;;;;;6.57;3.75;;;;;;;;;;4810934;29;32157;-69
2021/12/13 13:47:53;;;;;;;7.28;3.95;;;;;;;;;;4810969;29;32169;-69
2021/12/13 13:50:28;;;;;;;4.72;4.30;;;;;;;;;;4811228;29;32509;-70
2021/12/13 13:53:00;;;;;;;5.57;3.58;;;;;;;;;;4809333;29;34870;-68
2021/12/13 13:55:33;;;;;;;4.82;4.40;;;;;;;;;;4811123;29;32395;-70
2021/12/13 13:58:07;;;;;;;13.23;4.88;;;;;;;;;;4810714;29;32508;-69
2021/12/13 14:00:41;;;;;;;7.10;3.95;;;;;;;;;;4811124;29;32550;-69
2021/12/13 14:03:10;;;;;;;8.63;4.32;;;;;;;;;;4810915;29;34277;-69
2021/12/13 14:05:45;;;;;;;8.68;4.30;;;;;;;;;;4811242;29;32559;-68
2021/12/13 14:08:21;;;;;;;5.63;4.50;;;;;;;;;;4810941;29;32143;-68
2021/12/13 14:10:50;;;;;;;11.35;4.68;;;;;;;;;;4810978;29;32369;-68
2021/12/13 14:13:18;;;;;;;4.57;4.18;;;;;;;;;;4810408;29;32180;-70
2021/12/13 14:15:47;;;;;;;9.38;4.57;;;;;;;;;;4808876;29;35964;-71
2021/12/13 14:18:20;;;;;;;8.30;4.68;;;;;;;;;;4810429;29;32461;-70
2021/12/13 14:20:53;;;;;;;7.80;4.93;;;;;;;;;;4810689;29;32358;-69
2021/12/13 14:23:26;;;;;;;6.13;4.82;;;;;;;;;;4808195;29;32458;-68
2021/12/13 14:25:59;;;;;;;7.28;5.03;;;;;;;;;;4800193;29;34728;-68
2021/12/13 14:28:35;;;;;;;4.90;4.45;;;;;;;;;;4799965;29;32448;-69
2021/12/13 14:31:07;;;;;;;5.10;4.60;;;;;;;;;;4798501;29;32485;-68
2021/12/13 14:33:39;;;;;;;;;;;;;;;;;;4798360;29;32500;-69
2021/12/13 14:36:14;;;;;;;7.70;4.95;;;;;;;;;;4804362;29;32294;-68
2021/12/13 14:38:47;;;;;;;5.60;5.07;;;;;;;;;;4803221;29;35973;-68
2021/12/13 14:41:18;;;;;;;7.40;4.35;;;;;;;;;;4802172;29;32944;-68
2021/12/13 14:43:52;;;;;;;7.57;5.00;;;;;;;;;;4811271;29;32561;-70
2021/12/13 14:46:30;;;;;;;5.55;4.45;;;;;;;;;;4808334;29;32492;-69
2021/12/13 14:49:08;;;;;;;7.55;4.22;;;;;;;;;;4812128;29;35363;-70
2021/12/13 14:51:47;;;;;;;5.03;4.45;;;;;;;;;;4812420;29;32502;-68
2021/12/13 14:54:19;;;;;;;5.90;3.70;;;;;;;;;;4812107;29;32279;-67
2021/12/13 14:56:51;;;;;;;7.85;3.50;;;;;;;;;;4811718;29;32540;-67
2021/12/13 14:59:19;;;;;;;4.32;3.60;;;;;;;;;;4812689;29;32630;-69
2021/12/13 15:01:50;;;;;;;6.60;3.72;;;;;;;;;;4811312;29;35479;-66
2021/12/13 15:04:23;;;;;;;5.45;3.97;;;;;;;;;;4808598;29;32461;-68
2021/12/13 15:06:58;;;;;;;4.25;3.70;;;;;;;;;;4812402;29;32585;-67
2021/12/13 15:09:30;;;;;;;3.10;2.90;;;;;;;;;;4804210;29;32455;-68
2021/12/13 15:12:04;;;;;;;6.40;3.03;;;;;;;;;;4810615;29;34900;-70
2021/12/13 15:14:37;;;;;;;3.40;3.10;;;;;;;;;;4812566;29;32595;-68
2021/12/13 15:17:19;;;;;;;3.15;2.75;;;;;;;;;;4809839;29;32488;-68
2021/12/13 15:19:52;;;;;;;3.20;2.85;;;;;;;;;;4808971;29;32982;-67
2021/12/13 15:22:22;;;;;;;6.93;2.67;;;;;;;;;;4813997;29;32528;-66
2021/12/13 15:24:50;;;;;;;3.75;2.22;;;;;;;;;;4812184;29;35138;-66
2021/12/13 15:27:23;;;;;;;2.88;1.80;;;;;;;;;;4809365;29;32547;-68
2021/12/13 15:29:58;;;;;;;3.63;1.92;;;;;;;;;;4806375;29;32531;-66
2021/12/13 15:32:27;;;;;;;2.03;1.90;;;;;;;;;;4806336;29;32615;-67
2021/12/13 15:34:58;;;;;;;2.88;2.53;;;;;;;;;;4807735;29;35306;-68
2021/12/13 15:37:31;;;;;;;5.85;2.13;;;;;;;;;;4807933;29;32763;-71
2021/12/13 15:40:13;;;;;;;2.35;2.15;;;;;;;;;;4805483;29;32805;-71